createdAt,value
2022-09-28T00:02:13.449Z,19.88
2022-09-28T00:04:40.370Z,17.90
2022-09-28T00:07:07.375Z,15.88
2022-09-28T00:09:34.200Z,19.20
2022-09-28T00:12:01.258Z,17.20
2022-09-28T00:14:28.327Z,15.55
2022-09-28T00:16:55.343Z,17.02
2022-09-28T00:19:22.142Z,19.25
2022-09-28T00:21:49.170Z,17.85
2022-09-28T00:24:16.099Z,20.60
2022-09-28T00:26:48.441Z,21.80
2022-09-28T00:29:20.049Z,19.98
2022-09-28T00:31:47.242Z,20.70
2022-09-28T00:34:14.178Z,19.65
2022-09-28T00:36:43.730Z,22.00
2022-09-28T00:39:10.591Z,24.38
2022-09-28T00:41:37.526Z,21.33
2022-09-28T00:44:22.762Z,23.48
2022-09-28T00:46:53.774Z,19.55
2022-09-28T00:49:33.382Z,19.95
2022-09-28T00:52:00.233Z,18.20
2022-09-28T00:54:27.260Z,19.98
2022-09-28T00:56:54.062Z,17.35
2022-09-28T00:59:20.804Z,16.70
2022-09-28T01:01:48.616Z,17.80
2022-09-28T01:04:15.413Z,17.52
2022-09-28T01:06:42.166Z,16.60
2022-09-28T01:09:09.158Z,16.23
2022-09-28T01:11:36.997Z,14.77
2022-09-28T01:14:04.369Z,16.00
2022-09-28T01:16:56.337Z,16.95
2022-09-28T01:19:37.862Z,19.95
2022-09-28T01:22:27.753Z,17.40
2022-09-28T01:25:07.939Z,17.65
2022-09-28T01:27:59.781Z,17.83
2022-09-28T01:30:26.561Z,17.10
2022-09-28T01:33:19.352Z,15.98
2022-09-28T01:36:00.357Z,14.73
2022-09-28T01:38:30.903Z,13.88
2022-09-28T01:40:58.575Z,16.75
2022-09-28T01:43:27.097Z,12.00
2022-09-28T01:45:54.077Z,13.98
2022-09-28T01:48:27.226Z,14.20
2022-09-28T01:50:55.226Z,12.57
2022-09-28T01:53:40.389Z,14.90
2022-09-28T01:56:10.919Z,14.27
2022-09-28T01:58:45.521Z,13.10
2022-09-28T02:01:16.625Z,11.80
2022-09-28T02:03:48.864Z,11.75
2022-09-28T02:06:18.456Z,10.32
2022-09-28T02:08:57.146Z,10.30
2022-09-28T02:11:23.913Z,10.40
2022-09-28T02:13:58.761Z,7.90
2022-09-28T02:16:49.101Z,8.40
2022-09-28T02:19:18.181Z,9.40
2022-09-28T02:22:04.943Z,8.82
2022-09-28T02:24:39.791Z,8.43
2022-09-28T02:27:20.784Z,9.70
2022-09-28T02:29:48.823Z,7.55
2022-09-28T02:32:16.020Z,7.35
2022-09-28T02:34:42.803Z,9.43
2022-09-28T02:37:09.828Z,7.43
2022-09-28T02:39:36.605Z,6.60
2022-09-28T02:42:12.007Z,8.70
2022-09-28T02:45:10.193Z,8.38
2022-09-28T02:48:04.882Z,6.10
2022-09-28T02:50:51.788Z,7.35
2022-09-28T02:53:37.235Z,7.00
2022-09-28T02:56:26.242Z,7.45
2022-09-28T02:59:31.044Z,5.68
2022-09-28T03:02:16.943Z,6.53
2022-09-28T03:05:17.851Z,7.97
2022-09-28T03:08:03.950Z,8.30
2022-09-28T03:13:02.520Z,5.82
2022-09-28T03:15:30.833Z,6.25
2022-09-28T03:17:58.004Z,8.30
2022-09-28T03:20:25.960Z,7.28
2022-09-28T03:23:19.711Z,6.18
2022-09-28T03:25:39.850Z,8.77
2022-09-28T03:28:06.632Z,6.95
2022-09-28T03:30:33.538Z,7.13
2022-09-28T03:33:00.850Z,6.60
2022-09-28T03:35:27.638Z,8.55
2022-09-28T03:37:56.082Z,6.35
2022-09-28T03:40:23.289Z,6.18
2022-09-28T03:42:50.098Z,8.73
2022-09-28T03:45:16.974Z,7.65
2022-09-28T03:47:47.178Z,7.63
2022-09-28T03:50:14.304Z,10.23
2022-09-28T03:52:41.294Z,6.05
2022-09-28T03:55:08.835Z,7.07
2022-09-28T03:57:35.566Z,7.05
2022-09-28T04:00:03.666Z,5.03
2022-09-28T04:02:30.903Z,6.25
2022-09-28T04:04:57.782Z,6.38
2022-09-28T04:07:26.922Z,5.03
2022-09-28T04:09:57.336Z,5.88
2022-09-28T04:12:24.150Z,6.70
2022-09-28T04:14:51.012Z,6.05
2022-09-28T04:17:18.018Z,7.13
2022-09-28T04:19:44.859Z,7.90
2022-09-28T04:22:11.658Z,7.70
2022-09-28T04:24:39.190Z,6.38
2022-09-28T04:27:24.546Z,7.57
2022-09-28T04:29:51.599Z,9.98
2022-09-28T04:32:18.368Z,8.38
2022-09-28T04:34:45.214Z,7.20
2022-09-28T04:37:12.259Z,8.02
2022-09-28T04:39:42.264Z,8.02
2022-09-28T04:42:12.101Z,8.93
2022-09-28T04:44:39.158Z,9.18
2022-09-28T04:47:05.930Z,10.77
2022-09-28T04:49:35.338Z,7.97
2022-09-28T04:52:02.454Z,9.68
2022-09-28T04:54:29.297Z,7.53
2022-09-28T04:56:56.114Z,7.78
2022-09-28T04:59:23.423Z,7.68
2022-09-28T05:01:50.229Z,9.20
2022-09-28T05:04:17.407Z,9.85
2022-09-28T05:06:45.283Z,10.90
2022-09-28T05:09:12.024Z,8.00
2022-09-28T05:11:38.784Z,9.07
2022-09-28T05:14:06.001Z,8.43
2022-09-28T05:16:33.948Z,8.27
2022-09-28T05:19:00.904Z,7.50
2022-09-28T05:21:29.382Z,9.80
2022-09-28T05:23:58.255Z,7.07
2022-09-28T05:26:25.091Z,7.82
2022-09-28T05:28:52.140Z,7.78
2022-09-28T05:31:18.976Z,9.55
2022-09-28T05:33:45.832Z,8.07
2022-09-28T05:36:12.901Z,7.35
2022-09-28T05:38:39.753Z,7.85
2022-09-28T05:41:07.046Z,8.75
2022-09-28T05:43:34.237Z,7.00
2022-09-28T05:46:01.115Z,7.82
2022-09-28T05:48:28.444Z,11.70
2022-09-28T05:50:55.600Z,11.73
2022-09-28T05:53:22.549Z,9.00
2022-09-28T05:55:49.420Z,8.57
2022-09-28T05:58:16.568Z,9.07
2022-09-28T06:00:43.509Z,7.38
2022-09-28T06:03:13.913Z,8.07
2022-09-28T06:05:41.090Z,8.45
2022-09-28T06:08:10.306Z,7.93
2022-09-28T06:10:37.238Z,8.35
2022-09-28T06:13:04.653Z,9.93
2022-09-28T06:15:34.407Z,11.25
2022-09-28T06:18:06.251Z,10.40
2022-09-28T06:20:35.951Z,11.48
2022-09-28T06:23:02.766Z,9.98
2022-09-28T06:25:29.748Z,10.13
2022-09-28T06:28:04.522Z,8.45
2022-09-28T06:30:33.059Z,8.30
2022-09-28T06:33:00.866Z,6.95
2022-09-28T06:35:30.338Z,8.10
2022-09-28T06:37:58.249Z,6.97
2022-09-28T06:40:25.514Z,5.93
2022-09-28T06:43:00.093Z,7.18
2022-09-28T06:45:28.136Z,6.90
2022-09-28T06:47:59.030Z,8.52
2022-09-28T06:50:27.184Z,5.72
2022-09-28T06:52:54.759Z,5.63
2022-09-28T06:55:21.887Z,8.02
2022-09-28T06:57:55.628Z,6.63
2022-09-28T07:00:22.714Z,10.00
2022-09-28T07:02:49.502Z,7.80
2022-09-28T07:05:16.415Z,7.03
2022-09-28T07:07:44.769Z,7.72
2022-09-28T07:10:11.910Z,7.65
2022-09-28T07:12:39.880Z,7.03
2022-09-28T07:15:07.458Z,5.25
2022-09-28T07:17:50.349Z,4.78
2022-09-28T07:20:21.810Z,9.02
2022-09-28T07:22:53.406Z,6.13
2022-09-28T07:25:20.571Z,7.68
2022-09-28T07:27:47.650Z,6.32
2022-09-28T07:30:14.759Z,4.90
2022-09-28T07:32:42.037Z,5.93
2022-09-28T07:35:09.716Z,7.00
2022-09-28T07:37:36.783Z,5.13
2022-09-28T07:40:25.455Z,9.32
2022-09-28T07:42:52.775Z,6.93
2022-09-28T07:45:25.665Z,6.90
2022-09-28T07:47:58.457Z,9.38
2022-09-28T07:50:25.639Z,9.10
2022-09-28T07:52:52.385Z,10.35
2022-09-28T07:55:19.184Z,9.55
2022-09-28T07:57:48.368Z,10.75
2022-09-28T08:00:15.746Z,12.27
2022-09-28T08:02:42.742Z,10.93
2022-09-28T08:05:10.119Z,8.38
2022-09-28T08:07:38.333Z,9.48
2022-09-28T08:10:05.654Z,8.93
2022-09-28T08:12:33.421Z,9.68
2022-09-28T08:15:00.230Z,9.95
2022-09-28T08:17:27.132Z,11.00
2022-09-28T08:20:12.601Z,10.10
2022-09-28T08:22:39.932Z,11.00
2022-09-28T08:25:07.555Z,10.85
2022-09-28T08:27:34.375Z,10.35
2022-09-28T08:30:01.162Z,13.10
2022-09-28T08:32:29.794Z,11.48
2022-09-28T08:34:56.587Z,10.38
2022-09-28T08:37:23.342Z,10.98
2022-09-28T08:39:50.437Z,9.38
2022-09-28T08:42:30.743Z,10.55
2022-09-28T08:45:00.348Z,8.32
2022-09-28T08:47:53.068Z,8.85
2022-09-28T08:50:24.263Z,7.40
2022-09-28T08:52:54.311Z,8.82
2022-09-28T08:55:39.560Z,7.15
2022-09-28T08:58:14.440Z,6.30
2022-09-28T09:00:49.341Z,6.07
2022-09-28T09:03:34.438Z,6.68
2022-09-28T09:06:18.499Z,9.55
2022-09-28T09:09:11.206Z,6.78
2022-09-28T09:12:03.483Z,5.90
2022-09-28T09:14:59.632Z,6.35
2022-09-28T09:17:52.026Z,4.63
2022-09-28T09:20:33.932Z,6.50
2022-09-28T09:23:01.869Z,3.88
2022-09-28T09:25:53.213Z,6.60
2022-09-28T09:28:29.586Z,5.45
2022-09-28T09:31:02.674Z,5.82
2022-09-28T09:34:00.359Z,5.93
2022-09-28T09:36:33.398Z,6.45
2022-09-28T09:39:26.759Z,2.97
2022-09-28T09:42:12.385Z,4.25
2022-09-28T09:44:42.588Z,3.30
2022-09-28T09:47:15.043Z,3.13
2022-09-28T09:50:05.496Z,3.13
2022-09-28T09:52:54.954Z,4.00
2022-09-28T09:55:30.068Z,2.83
2022-09-28T09:58:33.171Z,2.42
2022-09-28T10:01:07.197Z,2.67
2022-09-28T10:03:35.021Z,3.10
2022-09-28T10:06:05.146Z,3.35
2022-09-28T10:08:34.746Z,3.13
2022-09-28T10:11:07.623Z,4.93
2022-09-28T10:13:35.096Z,2.63
2022-09-28T10:16:02.109Z,3.72
2022-09-28T10:18:28.980Z,2.30
2022-09-28T10:20:56.105Z,1.90
2022-09-28T10:23:28.399Z,2.38
2022-09-28T10:25:59.497Z,3.05
2022-09-28T10:28:50.817Z,3.10
2022-09-28T10:31:35.992Z,4.22
2022-09-28T10:34:04.528Z,4.22
2022-09-28T10:36:38.329Z,3.00
2022-09-28T10:39:06.100Z,3.85
2022-09-28T10:41:32.940Z,3.40
2022-09-28T10:44:08.892Z,4.13
2022-09-28T10:46:36.281Z,2.00
2022-09-28T10:49:05.000Z,2.13
2022-09-28T10:51:51.824Z,1.67
2022-09-28T10:54:19.938Z,1.77
2022-09-28T10:56:47.204Z,1.58
2022-09-28T10:59:43.462Z,2.17
2022-09-28T11:02:13.310Z,2.33
2022-09-28T11:04:42.015Z,1.70
2022-09-28T11:07:19.333Z,2.55
2022-09-28T11:09:49.525Z,1.60
2022-09-28T11:12:38.328Z,1.73
2022-09-28T11:15:06.548Z,2.55
2022-09-28T11:17:38.571Z,1.50
2022-09-28T11:20:27.449Z,2.20
2022-09-28T11:22:56.804Z,3.13
2022-09-28T11:25:28.215Z,1.98
2022-09-28T11:28:02.099Z,2.53
2022-09-28T11:30:45.994Z,2.83
2022-09-28T11:33:37.219Z,4.45
2022-09-28T11:36:13.217Z,3.80
2022-09-28T11:38:55.297Z,2.65
2022-09-28T11:41:28.557Z,3.85
2022-09-28T11:44:01.667Z,2.58
2022-09-28T11:47:06.217Z,2.28
2022-09-28T11:49:40.131Z,3.53
2022-09-28T11:52:12.480Z,3.42
2022-09-28T11:54:50.020Z,4.30
2022-09-28T11:57:20.840Z,3.22
2022-09-28T11:59:52.080Z,5.35
2022-09-28T12:02:27.795Z,4.78
2022-09-28T12:05:01.063Z,2.70
2022-09-28T12:07:44.721Z,2.40
2022-09-28T12:10:50.897Z,5.03
2022-09-28T12:16:20.050Z,5.15
2022-09-28T12:21:37.631Z,4.57
2022-09-28T12:24:29.434Z,4.70
2022-09-28T12:27:12.953Z,5.32
2022-09-28T12:30:00.291Z,5.57
2022-09-28T12:32:36.229Z,9.23
2022-09-28T12:35:03.696Z,8.00
2022-09-28T12:37:33.583Z,7.60
2022-09-28T12:40:20.645Z,6.75
2022-09-28T12:43:17.657Z,8.98
2022-09-28T12:46:15.569Z,5.03
2022-09-28T12:49:43.635Z,5.72
2022-09-28T12:51:49.607Z,6.72
2022-09-28T12:54:34.493Z,5.22
2022-09-28T12:57:29.985Z,9.18
2022-09-28T13:00:03.089Z,5.90
2022-09-28T13:03:07.069Z,7.53
2022-09-28T13:05:59.042Z,5.10
2022-09-28T13:08:34.738Z,5.55
2022-09-28T13:11:18.233Z,4.78
2022-09-28T13:13:58.160Z,5.47
2022-09-28T13:16:31.445Z,6.05
2022-09-28T13:19:20.628Z,6.55
2022-09-28T13:22:15.168Z,6.50
2022-09-28T13:24:44.272Z,5.63
2022-09-28T13:27:17.424Z,7.30
2022-09-28T13:29:44.394Z,8.65
2022-09-28T13:32:12.655Z,7.65
2022-09-28T13:34:39.986Z,7.05
2022-09-28T13:37:21.947Z,9.05
2022-09-28T13:39:52.867Z,5.13
2022-09-28T13:42:22.766Z,4.47
2022-09-28T13:44:59.472Z,5.88
2022-09-28T13:47:31.896Z,6.32
2022-09-28T13:50:25.715Z,4.78
2022-09-28T13:53:02.358Z,6.22
2022-09-28T13:55:32.936Z,7.07
2022-09-28T13:58:15.080Z,8.10
2022-09-28T14:00:56.728Z,6.88
2022-09-28T14:03:46.146Z,6.18
2022-09-28T14:06:30.359Z,7.50
2022-09-28T14:09:09.961Z,10.52
2022-09-28T14:11:36.913Z,9.50
2022-09-28T14:14:13.948Z,10.25
2022-09-28T14:16:41.465Z,11.02
2022-09-28T14:19:44.147Z,9.55
2022-09-28T14:22:17.646Z,10.88
2022-09-28T14:24:54.801Z,7.88
2022-09-28T14:27:37.850Z,9.45
2022-09-28T14:30:13.860Z,9.20
2022-09-28T14:32:42.902Z,8.10
2022-09-28T14:35:39.304Z,9.05
2022-09-28T14:38:38.145Z,9.32
2022-09-28T14:41:14.956Z,12.95
2022-09-28T14:43:44.867Z,11.18
2022-09-28T14:46:12.351Z,12.20
2022-09-28T14:48:58.228Z,9.95
2022-09-28T14:51:26.308Z,10.13
2022-09-28T14:53:54.697Z,9.73
2022-09-28T14:56:21.876Z,8.15
2022-09-28T14:58:53.416Z,8.10
2022-09-28T15:01:20.941Z,10.05
2022-09-28T15:03:48.868Z,8.20
2022-09-28T15:06:16.270Z,9.50
2022-09-28T15:08:43.024Z,6.95
2022-09-28T15:11:18.264Z,8.68
2022-09-28T15:13:45.432Z,8.93
2022-09-28T15:16:18.911Z,9.45
2022-09-28T15:19:18.773Z,7.70
2022-09-28T15:21:47.772Z,9.13
2022-09-28T15:24:33.964Z,8.52
2022-09-28T15:27:03.209Z,8.02
2022-09-28T15:29:33.423Z,7.15
2022-09-28T15:32:00.741Z,7.00
2022-09-28T15:34:52.001Z,8.10
2022-09-28T15:37:27.540Z,5.72
2022-09-28T15:42:22.575Z,6.45
2022-09-28T15:45:23.006Z,6.90
2022-09-28T15:47:50.116Z,6.63
2022-09-28T15:50:30.492Z,6.28
2022-09-28T15:53:00.872Z,6.40
2022-09-28T15:55:32.487Z,7.15
2022-09-28T15:58:27.466Z,5.55
2022-09-28T16:01:18.414Z,6.05
2022-09-28T16:03:45.519Z,6.55
2022-09-28T16:06:12.326Z,5.72
2022-09-28T16:08:42.045Z,5.40
2022-09-28T16:11:24.239Z,5.95
2022-09-28T16:14:02.576Z,8.32
2022-09-28T16:16:31.080Z,6.18
2022-09-28T16:19:00.776Z,8.95
2022-09-28T16:21:46.716Z,7.43
2022-09-28T16:24:33.533Z,9.32
2022-09-28T16:27:04.800Z,8.15
2022-09-28T16:29:42.052Z,7.53
2022-09-28T16:32:33.620Z,8.32
2022-09-28T16:35:13.004Z,10.50
2022-09-28T16:37:43.322Z,13.65
2022-09-28T16:40:10.833Z,8.95
2022-09-28T16:42:44.402Z,10.45
2022-09-28T16:45:21.678Z,8.77
2022-09-28T16:47:52.984Z,10.52
2022-09-28T16:50:21.097Z,13.40
2022-09-28T16:53:08.625Z,10.00
2022-09-28T16:55:40.635Z,10.15
2022-09-28T16:58:08.193Z,10.20
2022-09-28T17:00:35.061Z,9.60
2022-09-28T17:03:02.304Z,8.95
2022-09-28T17:05:29.503Z,11.65
2022-09-28T17:08:03.438Z,10.15
2022-09-28T17:10:56.157Z,11.52
2022-09-28T17:13:33.286Z,13.00
2022-09-28T17:16:02.894Z,13.10
2022-09-28T17:18:31.933Z,13.60
2022-09-28T17:21:01.334Z,14.75
2022-09-28T17:23:28.384Z,13.93
2022-09-28T17:25:55.689Z,13.57
2022-09-28T17:28:24.304Z,15.02
2022-09-28T17:30:51.486Z,13.88
2022-09-28T17:33:18.447Z,17.92
2022-09-28T17:35:45.292Z,12.13
2022-09-28T17:38:13.194Z,11.82
2022-09-28T17:40:40.281Z,10.63
2022-09-28T17:43:07.298Z,13.77
2022-09-28T17:45:39.074Z,12.27
2022-09-28T17:48:16.219Z,13.90
2022-09-28T17:50:46.423Z,14.70
2022-09-28T17:53:13.905Z,14.50
2022-09-28T17:55:40.910Z,14.23
2022-09-28T17:58:18.603Z,13.90
2022-09-28T18:00:46.043Z,12.82
2022-09-28T18:03:21.291Z,14.65
2022-09-28T18:06:10.972Z,13.73
2022-09-28T18:08:37.998Z,14.88
2022-09-28T18:11:04.993Z,11.70
2022-09-28T18:13:31.795Z,15.40
2022-09-28T18:15:58.943Z,10.35
2022-09-28T18:18:25.877Z,11.45
2022-09-28T18:20:52.793Z,14.40
2022-09-28T18:23:19.954Z,11.48
2022-09-28T18:25:47.141Z,11.35
2022-09-28T18:28:13.963Z,12.32
2022-09-28T18:30:42.797Z,11.40
2022-09-28T18:33:09.974Z,10.98
2022-09-28T18:35:36.805Z,12.57
2022-09-28T18:38:05.353Z,14.82
2022-09-28T18:40:35.352Z,14.38
2022-09-28T18:43:02.914Z,18.17
2022-09-28T18:45:30.703Z,15.65
2022-09-28T18:47:57.772Z,14.38
2022-09-28T18:50:24.533Z,17.38
2022-09-28T18:52:51.626Z,16.33
2022-09-28T18:55:19.072Z,17.50
2022-09-28T18:57:46.779Z,20.70
2022-09-28T19:00:15.210Z,23.83
2022-09-28T19:02:42.270Z,21.38
2022-09-28T19:05:09.667Z,24.23
2022-09-28T19:07:36.948Z,23.80
2022-09-28T19:10:04.169Z,27.70
2022-09-28T19:12:32.125Z,23.23
2022-09-28T19:14:59.777Z,27.83
2022-09-28T19:17:26.684Z,27.83
2022-09-28T19:19:53.518Z,28.02
2022-09-28T19:22:20.588Z,31.92
2022-09-28T19:24:47.398Z,33.67
2022-09-28T19:27:14.260Z,35.45
2022-09-28T19:29:41.280Z,30.60
2022-09-28T19:32:08.078Z,34.33
2022-09-28T19:34:34.957Z,32.72
2022-09-28T19:37:03.901Z,29.42
2022-09-28T19:39:31.570Z,28.48
2022-09-28T19:41:59.799Z,28.10
2022-09-28T19:44:28.188Z,27.80
2022-09-28T19:47:00.381Z,25.35
2022-09-28T19:49:27.646Z,28.70
2022-09-28T19:52:14.930Z,27.80
2022-09-28T19:54:55.307Z,25.67
2022-09-28T19:57:24.724Z,27.25
2022-09-28T19:59:53.828Z,21.85
2022-09-28T20:02:22.713Z,23.38
2022-09-28T20:04:49.526Z,19.65
2022-09-28T20:07:16.609Z,20.80
2022-09-28T20:09:43.468Z,22.35
2022-09-28T20:12:10.227Z,19.95
2022-09-28T20:14:40.145Z,22.73
2022-09-28T20:17:07.557Z,21.90
2022-09-28T20:19:35.074Z,20.23
2022-09-28T20:22:03.103Z,21.05
2022-09-28T20:24:31.376Z,21.85
2022-09-28T20:26:58.572Z,19.75
2022-09-28T20:29:25.673Z,16.75
2022-09-28T20:31:52.566Z,20.15
2022-09-28T20:34:19.386Z,17.98
2022-09-28T20:36:46.400Z,18.15
2022-09-28T20:39:13.450Z,18.23
2022-09-28T20:41:40.340Z,15.82
2022-09-28T20:44:07.612Z,17.35
2022-09-28T20:46:36.347Z,14.43
2022-09-28T20:49:04.450Z,14.82
2022-09-28T20:51:31.592Z,19.00
2022-09-28T20:53:58.861Z,15.13
2022-09-28T20:56:37.705Z,14.52
2022-09-28T20:59:08.351Z,13.45
2022-09-28T21:01:35.292Z,15.90
2022-09-28T21:04:03.631Z,14.43
2022-09-28T21:06:33.063Z,12.55
2022-09-28T21:08:59.870Z,14.25
2022-09-28T21:11:28.084Z,12.68
2022-09-28T21:13:56.631Z,15.35
2022-09-28T21:16:23.390Z,16.95
2022-09-28T21:18:50.176Z,14.88
2022-09-28T21:21:18.528Z,16.40
2022-09-28T21:23:45.601Z,15.25
2022-09-28T21:26:14.345Z,14.52
2022-09-28T21:28:41.485Z,18.42
2022-09-28T21:31:10.235Z,14.63
2022-09-28T21:33:37.279Z,15.07
2022-09-28T21:36:05.596Z,17.23
2022-09-28T21:38:32.500Z,14.05
2022-09-28T21:40:59.533Z,13.85
2022-09-28T21:43:27.423Z,14.70
2022-09-28T21:45:54.769Z,15.43
2022-09-28T21:48:22.564Z,13.02
2022-09-28T21:50:56.975Z,14.30
2022-09-28T21:53:29.043Z,15.07
2022-09-28T21:55:57.973Z,14.75
2022-09-28T21:58:26.276Z,14.02
2022-09-28T22:01:07.626Z,15.88
2022-09-28T22:03:35.634Z,16.17
2022-09-28T22:06:03.314Z,15.98
2022-09-28T22:08:30.180Z,16.50
2022-09-28T22:11:11.718Z,15.55
2022-09-28T22:13:44.683Z,16.50
2022-09-28T22:16:12.131Z,17.98
2022-09-28T22:18:39.022Z,17.55
2022-09-28T22:21:08.346Z,15.48
2022-09-28T22:23:36.064Z,15.85
2022-09-28T22:26:12.978Z,15.73
2022-09-28T22:28:40.322Z,14.05
2022-09-28T22:31:07.139Z,14.82
2022-09-28T22:33:35.103Z,18.40
2022-09-28T22:36:02.202Z,15.63
2022-09-28T22:38:31.870Z,14.90
2022-09-28T22:40:58.794Z,15.35
2022-09-28T22:43:26.333Z,16.83
2022-09-28T22:46:09.000Z,16.88
2022-09-28T22:48:36.055Z,20.17
2022-09-28T22:51:03.294Z,14.98
2022-09-28T22:53:30.241Z,15.60
2022-09-28T22:55:57.680Z,15.05
2022-09-28T22:58:24.660Z,14.75
2022-09-28T23:00:51.417Z,13.13
2022-09-28T23:03:18.454Z,16.05
2022-09-28T23:05:54.840Z,15.60
2022-09-28T23:08:22.132Z,16.00
2022-09-28T23:10:49.156Z,17.83
2022-09-28T23:13:16.060Z,17.77
2022-09-28T23:15:43.182Z,16.05
2022-09-28T23:18:10.171Z,13.48
2022-09-28T23:20:36.987Z,13.63
2022-09-28T23:23:04.004Z,13.23
2022-09-28T23:25:31.072Z,14.60
2022-09-28T23:27:57.863Z,12.52
2022-09-28T23:30:24.994Z,14.63
2022-09-28T23:32:53.197Z,15.48
2022-09-28T23:35:20.152Z,17.08
2022-09-28T23:37:50.721Z,15.98
2022-09-28T23:40:17.678Z,17.80
2022-09-28T23:42:44.491Z,18.77
2022-09-28T23:45:11.570Z,15.50
2022-09-28T23:47:38.593Z,17.20
2022-09-28T23:50:05.991Z,15.65
2022-09-28T23:52:33.302Z,16.20
2022-09-28T23:55:00.093Z,15.68
2022-09-28T23:57:26.939Z,17.98
2022-09-28T23:59:53.982Z,13.60
